sensor_id;sensor_type;location;lat;lon;timestamp;temperature;humidity
13561;DHT22;6852;51.686;5.314;2022-07-01T00:01:46;15.40;99.90
13561;DHT22;6852;51.686;5.314;2022-07-01T00:04:14;15.20;99.90
13561;DHT22;6852;51.686;5.314;2022-07-01T00:06:41;15.30;99.90
13561;DHT22;6852;51.686;5.314;2022-07-01T00:09:08;15.30;99.90
13561;DHT22;6852;51.686;5.314;2022-07-01T00:11:35;15.30;99.90
13561;DHT22;6852;51.686;5.314;2022-07-01T00:14:02;15.20;99.90
13561;DHT22;6852;51.686;5.314;2022-07-01T00:16:29;15.20;99.90
13561;DHT22;6852;51.686;5.314;2022-07-01T00:18:56;15.20;99.90
13561;DHT22;6852;51.686;5.314;2022-07-01T00:21:23;15.10;99.90
13561;DHT22;6852;51.686;5.314;2022-07-01T00:23:50;15.10;99.90
13561;DHT22;6852;51.686;5.314;2022-07-01T00:26:17;15.00;99.90
13561;DHT22;6852;51.686;5.314;2022-07-01T00:28:44;15.10;99.90
13561;DHT22;6852;51.686;5.314;2022-07-01T00:31:11;15.10;99.90
13561;DHT22;6852;51.686;5.314;2022-07-01T00:33:37;14.90;99.90
13561;DHT22;6852;51.686;5.314;2022-07-01T00:36:05;14.90;99.90
13561;DHT22;6852;51.686;5.314;2022-07-01T00:38:31;14.90;99.90
13561;DHT22;6852;51.686;5.314;2022-07-01T00:40:58;14.90;99.90
13561;DHT22;6852;51.686;5.314;2022-07-01T00:43:25;15.00;99.90
13561;DHT22;6852;51.686;5.314;2022-07-01T00:46:12;14.80;99.90
13561;DHT22;6852;51.686;5.314;2022-07-01T00:48:42;14.80;99.90
13561;DHT22;6852;51.686;5.314;2022-07-01T00:51:10;14.70;99.90
13561;DHT22;6852;51.686;5.314;2022-07-01T00:53:37;14.60;99.90
13561;DHT22;6852;51.686;5.314;2022-07-01T00:56:04;14.60;99.90
13561;DHT22;6852;51.686;5.314;2022-07-01T00:58:31;14.50;99.90
13561;DHT22;6852;51.686;5.314;2022-07-01T01:00:58;14.60;99.90
13561;DHT22;6852;51.686;5.314;2022-07-01T01:03:26;14.50;99.90
13561;DHT22;6852;51.686;5.314;2022-07-01T01:05:54;14.50;99.90
13561;DHT22;6852;51.686;5.314;2022-07-01T01:08:24;14.50;99.90
13561;DHT22;6852;51.686;5.314;2022-07-01T01:10:54;14.40;99.90
13561;DHT22;6852;51.686;5.314;2022-07-01T01:13:22;14.50;99.90
13561;DHT22;6852;51.686;5.314;2022-07-01T01:15:49;14.50;99.90
13561;DHT22;6852;51.686;5.314;2022-07-01T01:18:16;14.50;99.90
13561;DHT22;6852;51.686;5.314;2022-07-01T01:20:43;14.50;99.90
13561;DHT22;6852;51.686;5.314;2022-07-01T01:23:11;14.40;99.90
13561;DHT22;6852;51.686;5.314;2022-07-01T01:25:38;14.40;99.90
13561;DHT22;6852;51.686;5.314;2022-07-01T01:28:05;14.60;99.90
13561;DHT22;6852;51.686;5.314;2022-07-01T01:30:32;14.50;99.90
13561;DHT22;6852;51.686;5.314;2022-07-01T01:32:59;14.70;99.90
13561;DHT22;6852;51.686;5.314;2022-07-01T01:35:26;14.60;99.90
13561;DHT22;6852;51.686;5.314;2022-07-01T01:37:52;14.60;99.90
13561;DHT22;6852;51.686;5.314;2022-07-01T01:40:20;14.90;99.90
13561;DHT22;6852;51.686;5.314;2022-07-01T01:42:47;14.60;99.90
13561;DHT22;6852;51.686;5.314;2022-07-01T01:45:14;14.70;99.90
13561;DHT22;6852;51.686;5.314;2022-07-01T01:47:41;14.90;99.90
13561;DHT22;6852;51.686;5.314;2022-07-01T01:50:09;14.90;99.90
13561;DHT22;6852;51.686;5.314;2022-07-01T01:52:37;14.90;99.90
13561;DHT22;6852;51.686;5.314;2022-07-01T01:55:06;14.70;99.90
13561;DHT22;6852;51.686;5.314;2022-07-01T01:57:33;14.80;99.90
13561;DHT22;6852;51.686;5.314;2022-07-01T02:00:00;14.80;99.90
13561;DHT22;6852;51.686;5.314;2022-07-01T02:02:27;14.70;99.90
13561;DHT22;6852;51.686;5.314;2022-07-01T02:04:54;14.60;99.90
13561;DHT22;6852;51.686;5.314;2022-07-01T02:07:21;14.70;99.90
13561;DHT22;6852;51.686;5.314;2022-07-01T02:09:47;14.50;99.90
13561;DHT22;6852;51.686;5.314;2022-07-01T02:12:14;14.70;99.90
13561;DHT22;6852;51.686;5.314;2022-07-01T02:14:41;14.40;99.90
13561;DHT22;6852;51.686;5.314;2022-07-01T02:17:08;14.40;99.90
13561;DHT22;6852;51.686;5.314;2022-07-01T02:19:35;14.40;99.90
13561;DHT22;6852;51.686;5.314;2022-07-01T02:22:02;14.30;99.90
13561;DHT22;6852;51.686;5.314;2022-07-01T02:24:29;14.40;99.90
13561;DHT22;6852;51.686;5.314;2022-07-01T02:26:56;14.50;99.90
13561;DHT22;6852;51.686;5.314;2022-07-01T02:29:23;14.70;99.90
13561;DHT22;6852;51.686;5.314;2022-07-01T02:31:50;14.60;99.90
13561;DHT22;6852;51.686;5.314;2022-07-01T02:34:17;14.60;99.90
13561;DHT22;6852;51.686;5.314;2022-07-01T02:36:44;14.80;99.90
13561;DHT22;6852;51.686;5.314;2022-07-01T02:39:10;14.90;99.90
13561;DHT22;6852;51.686;5.314;2022-07-01T02:41:37;14.60;99.90
13561;DHT22;6852;51.686;5.314;2022-07-01T02:44:27;14.70;99.90
13561;DHT22;6852;51.686;5.314;2022-07-01T02:46:54;14.60;99.90
13561;DHT22;6852;51.686;5.314;2022-07-01T02:49:21;14.60;99.90
13561;DHT22;6852;51.686;5.314;2022-07-01T02:51:47;14.80;99.90
13561;DHT22;6852;51.686;5.314;2022-07-01T02:54:14;14.70;99.90
13561;DHT22;6852;51.686;5.314;2022-07-01T02:56:41;14.60;99.90
13561;DHT22;6852;51.686;5.314;2022-07-01T02:59:08;14.50;99.90
13561;DHT22;6852;51.686;5.314;2022-07-01T03:01:35;14.60;99.90
13561;DHT22;6852;51.686;5.314;2022-07-01T03:04:02;14.60;99.90
13561;DHT22;6852;51.686;5.314;2022-07-01T03:06:29;14.60;99.90
13561;DHT22;6852;51.686;5.314;2022-07-01T03:08:56;14.50;99.90
13561;DHT22;6852;51.686;5.314;2022-07-01T03:11:24;14.50;99.90
13561;DHT22;6852;51.686;5.314;2022-07-01T03:13:51;14.50;99.90
13561;DHT22;6852;51.686;5.314;2022-07-01T03:16:18;14.40;99.90
13561;DHT22;6852;51.686;5.314;2022-07-01T03:18:45;14.40;99.90
13561;DHT22;6852;51.686;5.314;2022-07-01T03:21:11;14.50;99.90
13561;DHT22;6852;51.686;5.314;2022-07-01T03:23:38;14.50;99.90
13561;DHT22;6852;51.686;5.314;2022-07-01T03:26:05;14.50;99.90
13561;DHT22;6852;51.686;5.314;2022-07-01T03:28:32;14.60;99.90
13561;DHT22;6852;51.686;5.314;2022-07-01T03:31:00;14.60;99.90
13561;DHT22;6852;51.686;5.314;2022-07-01T03:33:28;14.70;99.90
13561;DHT22;6852;51.686;5.314;2022-07-01T03:35:58;14.80;99.90
13561;DHT22;6852;51.686;5.314;2022-07-01T03:38:25;14.70;99.90
13561;DHT22;6852;51.686;5.314;2022-07-01T03:40:52;14.60;99.90
13561;DHT22;6852;51.686;5.314;2022-07-01T03:43:19;14.60;99.90
13561;DHT22;6852;51.686;5.314;2022-07-01T03:45:47;14.70;99.90
13561;DHT22;6852;51.686;5.314;2022-07-01T03:48:14;14.80;99.90
13561;DHT22;6852;51.686;5.314;2022-07-01T03:50:43;14.70;99.90
13561;DHT22;6852;51.686;5.314;2022-07-01T03:53:10;14.70;99.90
13561;DHT22;6852;51.686;5.314;2022-07-01T03:55:55;14.80;99.90
13561;DHT22;6852;51.686;5.314;2022-07-01T03:58:22;14.70;99.90
13561;DHT22;6852;51.686;5.314;2022-07-01T04:00:49;14.60;99.90
13561;DHT22;6852;51.686;5.314;2022-07-01T04:03:16;14.70;99.90
13561;DHT22;6852;51.686;5.314;2022-07-01T04:05:43;14.60;99.90
13561;DHT22;6852;51.686;5.314;2022-07-01T04:08:10;14.50;99.90
13561;DHT22;6852;51.686;5.314;2022-07-01T04:10:39;14.70;99.90
13561;DHT22;6852;51.686;5.314;2022-07-01T04:13:07;14.50;99.90
13561;DHT22;6852;51.686;5.314;2022-07-01T04:15:54;14.50;99.90
13561;DHT22;6852;51.686;5.314;2022-07-01T04:18:21;14.50;99.90
13561;DHT22;6852;51.686;5.314;2022-07-01T04:20:48;14.40;99.90
13561;DHT22;6852;51.686;5.314;2022-07-01T04:23:35;14.50;99.90
13561;DHT22;6852;51.686;5.314;2022-07-01T04:26:02;14.40;99.90
13561;DHT22;6852;51.686;5.314;2022-07-01T04:28:52;14.30;99.90
13561;DHT22;6852;51.686;5.314;2022-07-01T04:31:20;14.40;99.90
13561;DHT22;6852;51.686;5.314;2022-07-01T04:33:48;14.40;99.90
13561;DHT22;6852;51.686;5.314;2022-07-01T04:36:15;14.40;99.90
13561;DHT22;6852;51.686;5.314;2022-07-01T04:38:42;14.50;99.90
13561;DHT22;6852;51.686;5.314;2022-07-01T04:41:09;14.50;99.90
13561;DHT22;6852;51.686;5.314;2022-07-01T04:43:54;14.60;99.90
13561;DHT22;6852;51.686;5.314;2022-07-01T04:46:21;14.60;99.90
13561;DHT22;6852;51.686;5.314;2022-07-01T04:48:48;14.50;99.90
13561;DHT22;6852;51.686;5.314;2022-07-01T04:51:14;14.60;99.90
13561;DHT22;6852;51.686;5.314;2022-07-01T04:53:41;14.50;99.90
13561;DHT22;6852;51.686;5.314;2022-07-01T04:56:08;14.50;99.90
13561;DHT22;6852;51.686;5.314;2022-07-01T04:58:35;14.50;99.90
13561;DHT22;6852;51.686;5.314;2022-07-01T05:01:01;14.60;99.90
13561;DHT22;6852;51.686;5.314;2022-07-01T05:03:28;14.80;99.90
13561;DHT22;6852;51.686;5.314;2022-07-01T05:05:55;14.70;99.90
13561;DHT22;6852;51.686;5.314;2022-07-01T05:08:22;14.50;99.90
13561;DHT22;6852;51.686;5.314;2022-07-01T05:10:49;14.40;99.90
13561;DHT22;6852;51.686;5.314;2022-07-01T05:13:16;14.50;99.90
13561;DHT22;6852;51.686;5.314;2022-07-01T05:15:43;14.50;99.90
13561;DHT22;6852;51.686;5.314;2022-07-01T05:18:09;14.70;99.90
13561;DHT22;6852;51.686;5.314;2022-07-01T05:21:09;14.70;99.90
13561;DHT22;6852;51.686;5.314;2022-07-01T05:23:56;14.60;99.90
13561;DHT22;6852;51.686;5.314;2022-07-01T05:26:23;14.80;99.90
13561;DHT22;6852;51.686;5.314;2022-07-01T05:28:53;14.90;99.90
13561;DHT22;6852;51.686;5.314;2022-07-01T05:31:20;14.80;99.90
13561;DHT22;6852;51.686;5.314;2022-07-01T05:33:47;14.90;99.90
13561;DHT22;6852;51.686;5.314;2022-07-01T05:36:15;14.60;99.90
13561;DHT22;6852;51.686;5.314;2022-07-01T05:38:42;14.60;99.90
13561;DHT22;6852;51.686;5.314;2022-07-01T05:41:09;14.40;99.90
13561;DHT22;6852;51.686;5.314;2022-07-01T05:43:36;14.50;99.90
13561;DHT22;6852;51.686;5.314;2022-07-01T05:46:03;14.50;99.90
13561;DHT22;6852;51.686;5.314;2022-07-01T05:48:30;14.50;99.90
13561;DHT22;6852;51.686;5.314;2022-07-01T05:50:57;14.70;99.90
13561;DHT22;6852;51.686;5.314;2022-07-01T05:53:24;14.40;99.90
13561;DHT22;6852;51.686;5.314;2022-07-01T05:55:51;14.50;99.90
13561;DHT22;6852;51.686;5.314;2022-07-01T05:58:18;14.60;99.90
13561;DHT22;6852;51.686;5.314;2022-07-01T06:00:45;14.70;99.90
13561;DHT22;6852;51.686;5.314;2022-07-01T06:03:13;14.60;99.90
13561;DHT22;6852;51.686;5.314;2022-07-01T06:05:41;14.70;99.90
13561;DHT22;6852;51.686;5.314;2022-07-01T06:08:09;14.80;99.90
13561;DHT22;6852;51.686;5.314;2022-07-01T06:10:36;15.00;99.90
13561;DHT22;6852;51.686;5.314;2022-07-01T06:13:04;15.10;99.90
13561;DHT22;6852;51.686;5.314;2022-07-01T06:15:31;15.30;99.90
13561;DHT22;6852;51.686;5.314;2022-07-01T06:17:58;15.30;99.90
13561;DHT22;6852;51.686;5.314;2022-07-01T06:20:25;15.30;99.90
13561;DHT22;6852;51.686;5.314;2022-07-01T06:22:52;15.30;99.90
13561;DHT22;6852;51.686;5.314;2022-07-01T06:25:19;15.50;99.90
13561;DHT22;6852;51.686;5.314;2022-07-01T06:27:46;15.30;99.90
13561;DHT22;6852;51.686;5.314;2022-07-01T06:30:13;15.20;99.90
13561;DHT22;6852;51.686;5.314;2022-07-01T06:32:40;15.00;99.90
13561;DHT22;6852;51.686;5.314;2022-07-01T06:35:08;15.20;99.90
13561;DHT22;6852;51.686;5.314;2022-07-01T06:37:35;15.20;99.90
13561;DHT22;6852;51.686;5.314;2022-07-01T06:40:03;15.40;99.90
13561;DHT22;6852;51.686;5.314;2022-07-01T06:42:32;15.40;99.90
13561;DHT22;6852;51.686;5.314;2022-07-01T06:44:59;15.40;99.90
13561;DHT22;6852;51.686;5.314;2022-07-01T06:47:26;15.40;99.90
13561;DHT22;6852;51.686;5.314;2022-07-01T06:49:53;15.30;99.90
13561;DHT22;6852;51.686;5.314;2022-07-01T06:52:20;15.40;99.90
13561;DHT22;6852;51.686;5.314;2022-07-01T06:54:47;15.50;99.90
13561;DHT22;6852;51.686;5.314;2022-07-01T06:57:14;15.60;99.90
13561;DHT22;6852;51.686;5.314;2022-07-01T06:59:41;15.80;99.90
13561;DHT22;6852;51.686;5.314;2022-07-01T07:02:08;15.90;99.90
13561;DHT22;6852;51.686;5.314;2022-07-01T07:04:35;16.00;99.90
13561;DHT22;6852;51.686;5.314;2022-07-01T07:07:22;16.10;99.90
13561;DHT22;6852;51.686;5.314;2022-07-01T07:09:48;16.20;99.90
13561;DHT22;6852;51.686;5.314;2022-07-01T07:12:15;16.30;99.90
13561;DHT22;6852;51.686;5.314;2022-07-01T07:14:42;16.60;99.90
13561;DHT22;6852;51.686;5.314;2022-07-01T07:17:09;16.70;99.90
13561;DHT22;6852;51.686;5.314;2022-07-01T07:19:36;16.60;99.90
13561;DHT22;6852;51.686;5.314;2022-07-01T07:22:03;16.90;99.90
13561;DHT22;6852;51.686;5.314;2022-07-01T07:24:30;16.70;99.90
13561;DHT22;6852;51.686;5.314;2022-07-01T07:26:57;17.00;99.90
13561;DHT22;6852;51.686;5.314;2022-07-01T07:29:24;17.00;99.90
13561;DHT22;6852;51.686;5.314;2022-07-01T07:31:50;16.80;99.90
13561;DHT22;6852;51.686;5.314;2022-07-01T07:34:17;17.30;99.90
13561;DHT22;6852;51.686;5.314;2022-07-01T07:36:44;17.20;99.90
13561;DHT22;6852;51.686;5.314;2022-07-01T07:39:11;16.90;99.90
13561;DHT22;6852;51.686;5.314;2022-07-01T07:41:38;16.80;99.90
13561;DHT22;6852;51.686;5.314;2022-07-01T07:44:05;16.80;99.90
13561;DHT22;6852;51.686;5.314;2022-07-01T07:46:32;16.80;99.90
13561;DHT22;6852;51.686;5.314;2022-07-01T07:48:59;17.10;99.90
13561;DHT22;6852;51.686;5.314;2022-07-01T07:51:26;17.10;99.90
13561;DHT22;6852;51.686;5.314;2022-07-01T07:53:53;17.00;99.90
13561;DHT22;6852;51.686;5.314;2022-07-01T07:56:20;16.90;99.90
13561;DHT22;6852;51.686;5.314;2022-07-01T07:58:47;17.40;99.90
13561;DHT22;6852;51.686;5.314;2022-07-01T08:01:14;18.10;99.90
13561;DHT22;6852;51.686;5.314;2022-07-01T08:03:41;18.30;99.90
13561;DHT22;6852;51.686;5.314;2022-07-01T08:06:08;18.00;99.90
13561;DHT22;6852;51.686;5.314;2022-07-01T08:08:35;18.10;99.90
13561;DHT22;6852;51.686;5.314;2022-07-01T08:11:02;18.50;99.90
13561;DHT22;6852;51.686;5.314;2022-07-01T08:13:29;18.40;99.90
13561;DHT22;6852;51.686;5.314;2022-07-01T08:15:56;18.40;99.90
13561;DHT22;6852;51.686;5.314;2022-07-01T08:18:24;18.30;99.90
13561;DHT22;6852;51.686;5.314;2022-07-01T08:20:50;18.60;1.00
13561;DHT22;6852;51.686;5.314;2022-07-01T08:23:20;18.50;99.90
13561;DHT22;6852;51.686;5.314;2022-07-01T08:25:48;18.60;99.90
13561;DHT22;6852;51.686;5.314;2022-07-01T08:28:16;18.70;99.90
13561;DHT22;6852;51.686;5.314;2022-07-01T08:30:43;18.80;1.00
13561;DHT22;6852;51.686;5.314;2022-07-01T08:33:10;18.50;1.00
13561;DHT22;6852;51.686;5.314;2022-07-01T08:35:37;18.70;1.00
13561;DHT22;6852;51.686;5.314;2022-07-01T08:38:04;18.80;99.90
13561;DHT22;6852;51.686;5.314;2022-07-01T08:40:31;18.90;1.00
13561;DHT22;6852;51.686;5.314;2022-07-01T08:43:00;18.90;1.00
13561;DHT22;6852;51.686;5.314;2022-07-01T08:45:30;19.00;99.90
13561;DHT22;6852;51.686;5.314;2022-07-01T08:47:59;19.20;1.00
13561;DHT22;6852;51.686;5.314;2022-07-01T08:50:35;18.80;1.00
13561;DHT22;6852;51.686;5.314;2022-07-01T08:53:03;18.90;1.00
13561;DHT22;6852;51.686;5.314;2022-07-01T08:55:30;19.10;99.90
13561;DHT22;6852;51.686;5.314;2022-07-01T08:57:58;18.80;1.00
13561;DHT22;6852;51.686;5.314;2022-07-01T09:00:32;19.30;99.90
13561;DHT22;6852;51.686;5.314;2022-07-01T09:03:03;19.80;1.00
13561;DHT22;6852;51.686;5.314;2022-07-01T09:05:31;20.10;99.90
13561;DHT22;6852;51.686;5.314;2022-07-01T09:08:04;19.90;99.90
13561;DHT22;6852;51.686;5.314;2022-07-01T09:10:33;19.90;1.00
13561;DHT22;6852;51.686;5.314;2022-07-01T09:13:07;19.60;1.00
13561;DHT22;6852;51.686;5.314;2022-07-01T09:15:36;20.40;1.00
13561;DHT22;6852;51.686;5.314;2022-07-01T09:18:09;20.30;1.00
13561;DHT22;6852;51.686;5.314;2022-07-01T10:23:04;20.20;1.00
13561;DHT22;6852;51.686;5.314;2022-07-01T10:44:39;20.30;1.00
13561;DHT22;6852;51.686;5.314;2022-07-01T10:47:07;19.80;69.90
13561;DHT22;6852;51.686;5.314;2022-07-01T10:52:07;20.60;1.00
13561;DHT22;6852;51.686;5.314;2022-07-01T10:59:51;20.90;1.00
13561;DHT22;6852;51.686;5.314;2022-07-01T11:05:14;21.10;1.00
13561;DHT22;6852;51.686;5.314;2022-07-01T11:07:45;20.90;99.90
13561;DHT22;6852;51.686;5.314;2022-07-01T11:10:15;20.80;99.90
13561;DHT22;6852;51.686;5.314;2022-07-01T11:12:43;21.10;1.00
13561;DHT22;6852;51.686;5.314;2022-07-01T11:15:15;21.70;1.00
13561;DHT22;6852;51.686;5.314;2022-07-01T11:17:49;22.30;1.00
13561;DHT22;6852;51.686;5.314;2022-07-01T11:20:16;21.70;1.00
13561;DHT22;6852;51.686;5.314;2022-07-01T11:22:49;21.30;99.90
13561;DHT22;6852;51.686;5.314;2022-07-01T11:25:18;22.20;99.90
13561;DHT22;6852;51.686;5.314;2022-07-01T11:27:47;22.00;1.00
13561;DHT22;6852;51.686;5.314;2022-07-01T11:30:17;21.80;44.00
13561;DHT22;6852;51.686;5.314;2022-07-01T11:32:55;21.70;1.00
13561;DHT22;6852;51.686;5.314;2022-07-01T11:35:26;21.80;99.90
13561;DHT22;6852;51.686;5.314;2022-07-01T11:38:24;22.00;1.00
13561;DHT22;6852;51.686;5.314;2022-07-01T11:41:19;22.40;1.00
13561;DHT22;6852;51.686;5.314;2022-07-01T11:43:47;22.40;1.00
13561;DHT22;6852;51.686;5.314;2022-07-01T11:46:14;22.50;1.00
13561;DHT22;6852;51.686;5.314;2022-07-01T11:48:47;23.00;1.00
13561;DHT22;6852;51.686;5.314;2022-07-01T11:51:35;23.40;99.90
13561;DHT22;6852;51.686;5.314;2022-07-01T11:54:02;22.90;1.00
13561;DHT22;6852;51.686;5.314;2022-07-01T11:56:30;22.60;1.00
13561;DHT22;6852;51.686;5.314;2022-07-01T11:58:57;23.00;1.00
13561;DHT22;6852;51.686;5.314;2022-07-01T12:01:33;23.00;1.00
13561;DHT22;6852;51.686;5.314;2022-07-01T12:04:03;22.60;1.00
13561;DHT22;6852;51.686;5.314;2022-07-01T12:06:31;22.70;1.00
13561;DHT22;6852;51.686;5.314;2022-07-01T12:09:00;23.50;99.90
13561;DHT22;6852;51.686;5.314;2022-07-01T12:11:27;24.10;84.70
13561;DHT22;6852;51.686;5.314;2022-07-01T12:13:58;23.40;1.00
13561;DHT22;6852;51.686;5.314;2022-07-01T12:16:25;23.00;1.00
13561;DHT22;6852;51.686;5.314;2022-07-01T12:19:00;22.40;1.00
13561;DHT22;6852;51.686;5.314;2022-07-01T12:21:30;22.60;99.90
13561;DHT22;6852;51.686;5.314;2022-07-01T12:24:14;22.90;1.00
13561;DHT22;6852;51.686;5.314;2022-07-01T12:26:52;22.90;1.00
13561;DHT22;6852;51.686;5.314;2022-07-01T12:29:22;22.80;1.00
13561;DHT22;6852;51.686;5.314;2022-07-01T12:34:42;22.90;1.00
13561;DHT22;6852;51.686;5.314;2022-07-01T12:37:10;22.90;99.90
13561;DHT22;6852;51.686;5.314;2022-07-01T12:39:51;22.20;46.60
13561;DHT22;6852;51.686;5.314;2022-07-01T12:42:25;22.80;1.00
13561;DHT22;6852;51.686;5.314;2022-07-01T12:44:55;22.50;1.00
13561;DHT22;6852;51.686;5.314;2022-07-01T12:47:34;22.00;1.00
13561;DHT22;6852;51.686;5.314;2022-07-01T12:50:14;22.90;99.90
13561;DHT22;6852;51.686;5.314;2022-07-01T12:52:56;22.50;1.00
13561;DHT22;6852;51.686;5.314;2022-07-01T12:55:24;22.30;1.00
13561;DHT22;6852;51.686;5.314;2022-07-01T12:57:54;23.40;1.00
13561;DHT22;6852;51.686;5.314;2022-07-01T13:00:23;22.90;1.00
13561;DHT22;6852;51.686;5.314;2022-07-01T13:02:55;22.60;1.00
13561;DHT22;6852;51.686;5.314;2022-07-01T13:05:23;22.80;1.00
13561;DHT22;6852;51.686;5.314;2022-07-01T13:07:50;23.00;1.00
13561;DHT22;6852;51.686;5.314;2022-07-01T13:10:18;23.10;99.90
13561;DHT22;6852;51.686;5.314;2022-07-01T13:12:46;22.90;1.00
13561;DHT22;6852;51.686;5.314;2022-07-01T13:15:14;24.30;1.00
13561;DHT22;6852;51.686;5.314;2022-07-01T13:17:41;23.90;1.00
13561;DHT22;6852;51.686;5.314;2022-07-01T13:20:09;24.40;21.30
13561;DHT22;6852;51.686;5.314;2022-07-01T13:22:36;24.90;1.00
13561;DHT22;6852;51.686;5.314;2022-07-01T13:25:03;23.40;1.00
13561;DHT22;6852;51.686;5.314;2022-07-01T13:27:30;23.40;1.00
13561;DHT22;6852;51.686;5.314;2022-07-01T13:29:57;22.90;99.90
13561;DHT22;6852;51.686;5.314;2022-07-01T13:32:25;23.40;1.00
13561;DHT22;6852;51.686;5.314;2022-07-01T13:34:52;23.10;99.90
13561;DHT22;6852;51.686;5.314;2022-07-01T13:37:19;23.00;1.00
13561;DHT22;6852;51.686;5.314;2022-07-01T13:39:46;23.40;99.90
13561;DHT22;6852;51.686;5.314;2022-07-01T13:42:13;22.80;1.00
13561;DHT22;6852;51.686;5.314;2022-07-01T13:44:40;22.20;1.00
13561;DHT22;6852;51.686;5.314;2022-07-01T13:47:07;22.00;99.90
13561;DHT22;6852;51.686;5.314;2022-07-01T13:49:37;21.90;1.00
13561;DHT22;6852;51.686;5.314;2022-07-01T13:52:05;21.60;99.90
13561;DHT22;6852;51.686;5.314;2022-07-01T13:54:32;21.40;1.00
13561;DHT22;6852;51.686;5.314;2022-07-01T13:56:59;21.30;99.90
13561;DHT22;6852;51.686;5.314;2022-07-01T13:59:26;21.40;99.90
13561;DHT22;6852;51.686;5.314;2022-07-01T14:01:53;21.40;1.00
13561;DHT22;6852;51.686;5.314;2022-07-01T14:04:20;21.20;1.00
13561;DHT22;6852;51.686;5.314;2022-07-01T14:06:47;21.20;1.00
13561;DHT22;6852;51.686;5.314;2022-07-01T14:09:14;20.90;99.90
13561;DHT22;6852;51.686;5.314;2022-07-01T14:11:41;21.00;1.00
13561;DHT22;6852;51.686;5.314;2022-07-01T14:14:08;20.80;1.00
13561;DHT22;6852;51.686;5.314;2022-07-01T14:16:34;21.00;99.90
13561;DHT22;6852;51.686;5.314;2022-07-01T14:19:02;21.30;99.90
13561;DHT22;6852;51.686;5.314;2022-07-01T14:21:29;21.00;1.00
13561;DHT22;6852;51.686;5.314;2022-07-01T14:23:56;20.70;99.90
13561;DHT22;6852;51.686;5.314;2022-07-01T14:26:23;20.60;99.90
13561;DHT22;6852;51.686;5.314;2022-07-01T14:28:50;20.50;99.90
13561;DHT22;6852;51.686;5.314;2022-07-01T14:31:17;20.30;99.90
13561;DHT22;6852;51.686;5.314;2022-07-01T14:33:44;20.10;1.00
13561;DHT22;6852;51.686;5.314;2022-07-01T14:36:12;19.90;99.90
13561;DHT22;6852;51.686;5.314;2022-07-01T14:38:39;20.20;99.90
13561;DHT22;6852;51.686;5.314;2022-07-01T14:41:06;19.80;34.10
13561;DHT22;6852;51.686;5.314;2022-07-01T14:43:34;20.20;99.90
13561;DHT22;6852;51.686;5.314;2022-07-01T14:46:01;20.30;1.00
13561;DHT22;6852;51.686;5.314;2022-07-01T14:48:30;19.80;1.00
13561;DHT22;6852;51.686;5.314;2022-07-01T14:50:57;19.70;1.00
13561;DHT22;6852;51.686;5.314;2022-07-01T14:53:24;19.70;1.00
13561;DHT22;6852;51.686;5.314;2022-07-01T14:55:51;19.40;99.90
13561;DHT22;6852;51.686;5.314;2022-07-01T14:58:18;19.20;1.00
13561;DHT22;6852;51.686;5.314;2022-07-01T15:00:46;19.10;1.00
13561;DHT22;6852;51.686;5.314;2022-07-01T15:03:13;19.20;1.00
13561;DHT22;6852;51.686;5.314;2022-07-01T15:05:40;19.10;99.90
13561;DHT22;6852;51.686;5.314;2022-07-01T15:08:07;18.80;1.00
13561;DHT22;6852;51.686;5.314;2022-07-01T15:10:34;18.80;1.00
13561;DHT22;6852;51.686;5.314;2022-07-01T15:13:01;18.70;99.90
13561;DHT22;6852;51.686;5.314;2022-07-01T15:15:28;18.70;1.00
13561;DHT22;6852;51.686;5.314;2022-07-01T15:17:55;18.80;1.00
13561;DHT22;6852;51.686;5.314;2022-07-01T15:20:22;18.70;99.90
13561;DHT22;6852;51.686;5.314;2022-07-01T15:22:49;18.80;1.00
13561;DHT22;6852;51.686;5.314;2022-07-01T15:25:16;18.70;99.90
13561;DHT22;6852;51.686;5.314;2022-07-01T15:27:43;18.80;1.00
13561;DHT22;6852;51.686;5.314;2022-07-01T15:30:10;18.80;1.00
13561;DHT22;6852;51.686;5.314;2022-07-01T15:32:37;18.70;1.00
13561;DHT22;6852;51.686;5.314;2022-07-01T15:35:05;18.90;1.00
13561;DHT22;6852;51.686;5.314;2022-07-01T15:37:32;18.90;1.00
13561;DHT22;6852;51.686;5.314;2022-07-01T15:39:59;18.70;1.00
13561;DHT22;6852;51.686;5.314;2022-07-01T15:42:30;18.70;1.00
13561;DHT22;6852;51.686;5.314;2022-07-01T15:44:57;18.70;99.90
13561;DHT22;6852;51.686;5.314;2022-07-01T15:47:24;18.70;99.90
13561;DHT22;6852;51.686;5.314;2022-07-01T15:50:10;18.80;1.00
13561;DHT22;6852;51.686;5.314;2022-07-01T15:52:36;19.10;1.00
13561;DHT22;6852;51.686;5.314;2022-07-01T15:55:06;19.00;1.00
13561;DHT22;6852;51.686;5.314;2022-07-01T15:57:33;19.10;1.00
13561;DHT22;6852;51.686;5.314;2022-07-01T16:00:00;19.10;1.00
13561;DHT22;6852;51.686;5.314;2022-07-01T16:02:27;19.20;99.90
13561;DHT22;6852;51.686;5.314;2022-07-01T16:04:54;19.40;1.00
13561;DHT22;6852;51.686;5.314;2022-07-01T16:07:22;19.40;1.00
13561;DHT22;6852;51.686;5.314;2022-07-01T16:10:07;19.50;1.00
13561;DHT22;6852;51.686;5.314;2022-07-01T16:12:36;19.60;1.00
13561;DHT22;6852;51.686;5.314;2022-07-01T16:15:05;19.70;1.00
13561;DHT22;6852;51.686;5.314;2022-07-01T16:17:35;20.10;1.00
13561;DHT22;6852;51.686;5.314;2022-07-01T16:20:04;19.90;1.00
13561;DHT22;6852;51.686;5.314;2022-07-01T16:22:35;19.80;1.00
13561;DHT22;6852;51.686;5.314;2022-07-01T16:25:06;19.70;1.00
13561;DHT22;6852;51.686;5.314;2022-07-01T16:27:35;19.70;99.90
13561;DHT22;6852;51.686;5.314;2022-07-01T16:30:03;19.70;1.00
13561;DHT22;6852;51.686;5.314;2022-07-01T16:32:31;19.60;1.00
13561;DHT22;6852;51.686;5.314;2022-07-01T16:34:58;19.70;1.00
13561;DHT22;6852;51.686;5.314;2022-07-01T16:37:30;19.50;1.00
13561;DHT22;6852;51.686;5.314;2022-07-01T16:40:03;19.50;1.00
13561;DHT22;6852;51.686;5.314;2022-07-01T16:42:32;19.40;1.00
13561;DHT22;6852;51.686;5.314;2022-07-01T16:45:02;19.30;1.00
13561;DHT22;6852;51.686;5.314;2022-07-01T16:47:30;19.40;99.90
13561;DHT22;6852;51.686;5.314;2022-07-01T16:50:03;19.50;1.00
13561;DHT22;6852;51.686;5.314;2022-07-01T16:52:36;19.50;1.00
13561;DHT22;6852;51.686;5.314;2022-07-01T16:55:06;19.50;99.90
13561;DHT22;6852;51.686;5.314;2022-07-01T16:57:34;19.50;1.00
13561;DHT22;6852;51.686;5.314;2022-07-01T17:00:07;19.40;1.00
13561;DHT22;6852;51.686;5.314;2022-07-01T17:02:35;19.30;1.00
13561;DHT22;6852;51.686;5.314;2022-07-01T17:05:04;19.40;99.90
13561;DHT22;6852;51.686;5.314;2022-07-01T17:07:32;19.40;99.90
13561;DHT22;6852;51.686;5.314;2022-07-01T17:10:00;19.40;1.00
13561;DHT22;6852;51.686;5.314;2022-07-01T17:12:27;19.50;1.00
13561;DHT22;6852;51.686;5.314;2022-07-01T17:14:55;19.50;1.00
13561;DHT22;6852;51.686;5.314;2022-07-01T17:17:25;19.30;1.00
13561;DHT22;6852;51.686;5.314;2022-07-01T17:19:53;19.20;99.90
13561;DHT22;6852;51.686;5.314;2022-07-01T17:22:52;19.20;1.00
13561;DHT22;6852;51.686;5.314;2022-07-01T17:30:59;19.40;99.90
13561;DHT22;6852;51.686;5.314;2022-07-01T17:33:31;19.40;1.00
13561;DHT22;6852;51.686;5.314;2022-07-01T17:36:02;19.30;99.90
13561;DHT22;6852;51.686;5.314;2022-07-01T17:38:34;19.30;1.00
13561;DHT22;6852;51.686;5.314;2022-07-01T17:41:04;19.20;1.00
13561;DHT22;6852;51.686;5.314;2022-07-01T17:43:32;19.20;1.00